Time;durP1;ratioP1;P1;durP2;ratioP2;P2;SDS_P1;SDS_P2;PMS_P1;PMS_P2;Temp;Humidity;BMP_temperature;BMP_pressure;BME280_temperature;BME280_humidity;BME280_pressure;Samples;Min_cycle;Max_cycle;Signal;HPM_P1;HPM_P2
2022/01/14 00:00:37;;;;;;;87.27;36.60;;;2.00;99.90;;;;;;5011894;28;20188;-77
2022/01/14 00:03:06;;;;;;;83.37;34.50;;;2.00;99.90;;;;;;5023852;28;20634;-77
2022/01/14 00:05:34;;;;;;;83.50;35.67;;;2.00;99.90;;;;;;5010693;28;20215;-76
2022/01/14 00:08:01;;;;;;;77.60;34.60;;;2.10;99.90;;;;;;5004752;28;20204;-77
2022/01/14 00:10:30;;;;;;;64.47;32.33;;;2.20;99.90;;;;;;5029561;28;20212;-77
2022/01/14 00:13:08;;;;;;;74.93;33.37;;;2.30;99.90;;;;;;5011121;28;20557;-76
2022/01/14 00:15:35;;;;;;;74.17;33.20;;;2.20;99.90;;;;;;5002318;28;20223;-77
2022/01/14 00:18:03;;;;;;;66.47;31.53;;;2.20;99.90;;;;;;5022752;28;20201;-77
2022/01/14 00:21:01;;;;;;;60.47;31.03;;;2.10;99.90;;;;;;5011789;28;20677;-77
2022/01/14 00:23:32;;;;;;;59.60;30.80;;;2.20;99.90;;;;;;5003022;28;20196;-77
2022/01/14 00:31:46;;;;;;;54.43;28.53;;;2.40;99.90;;;;;;5007732;28;20203;-77
2022/01/14 00:34:15;;;;;;;49.60;28.53;;;2.30;99.90;;;;;;5013937;28;20220;-76
2022/01/14 00:36:43;;;;;;;51.07;29.20;;;2.30;99.90;;;;;;5010372;28;20192;-76
2022/01/14 00:39:12;;;;;;;53.83;29.73;;;2.20;99.90;;;;;;5012110;28;20231;-76
2022/01/14 00:41:40;;;;;;;50.63;28.37;;;2.30;99.90;;;;;;5022673;28;20197;-77
2022/01/14 00:44:12;;;;;;;55.87;28.60;;;2.40;99.90;;;;;;5012110;28;20223;-77
2022/01/14 00:46:39;;;;;;;48.70;27.47;;;2.30;99.90;;;;;;5009491;28;20195;-77
2022/01/14 00:49:07;;;;;;;51.33;26.50;;;2.30;99.90;;;;;;5028043;28;20214;-77
2022/01/14 00:51:35;;;;;;;49.20;28.07;;;2.30;99.90;;;;;;5014018;28;20583;-76
2022/01/14 00:54:04;;;;;;;46.40;27.50;;;2.30;99.90;;;;;;5025002;28;20221;-76
2022/01/14 00:56:44;;;;;;;50.47;28.43;;;2.30;99.90;;;;;;5013444;28;20207;-77
2022/01/14 00:59:14;;;;;;;51.10;26.83;;;2.20;99.90;;;;;;5012186;28;20196;-77
2022/01/14 01:01:43;;;;;;;47.13;27.77;;;2.20;99.90;;;;;;5005944;28;20192;-77
2022/01/14 01:04:40;;;;;;;46.70;25.70;;;2.30;99.90;;;;;;5013734;28;20231;-77
2022/01/14 01:07:11;;;;;;;46.40;25.80;;;2.20;99.90;;;;;;5011887;28;20207;-76
2022/01/14 01:09:45;;;;;;;45.97;26.30;;;2.20;99.90;;;;;;5014505;28;20188;-76
2022/01/14 01:12:17;;;;;;;42.87;25.60;;;2.20;99.90;;;;;;5023978;28;20231;-77
2022/01/14 01:14:51;;;;;;;43.60;24.97;;;2.30;99.90;;;;;;5014449;28;20216;-77
2022/01/14 01:17:19;;;;;;;44.60;23.87;;;2.30;99.90;;;;;;5021098;28;20557;-77
2022/01/14 01:19:46;;;;;;;39.80;22.87;;;2.60;99.90;;;;;;5007146;28;20200;-77
2022/01/14 01:22:14;;;;;;;38.23;25.00;;;2.70;99.90;;;;;;5012292;28;20212;-77
2022/01/14 01:24:53;;;;;;;39.80;22.60;;;2.70;99.90;;;;;;5006939;28;20231;-77
2022/01/14 01:27:21;;;;;;;39.03;22.40;;;2.80;99.90;;;;;;5007624;28;20657;-77
2022/01/14 01:29:55;;;;;;;38.67;23.10;;;2.80;99.90;;;;;;5026087;28;20212;-77
2022/01/14 01:32:22;;;;;;;34.70;22.57;;;2.70;99.90;;;;;;5012928;28;20208;-77
2022/01/14 01:34:50;;;;;;;35.30;21.60;;;2.80;99.90;;;;;;5022994;28;20555;-77
2022/01/14 01:37:17;;;;;;;40.00;23.90;;;2.80;99.90;;;;;;5013908;28;20194;-76
2022/01/14 01:39:45;;;;;;;42.33;22.90;;;2.80;99.90;;;;;;5006762;28;20196;-76
2022/01/14 01:42:12;;;;;;;38.97;23.33;;;2.90;99.90;;;;;;5027650;28;20209;-77
2022/01/14 01:44:41;;;;;;;38.57;22.87;;;2.90;99.90;;;;;;5010831;28;20219;-77
2022/01/14 01:47:09;;;;;;;46.43;25.43;;;3.00;99.90;;;;;;5012547;28;20204;-77
2022/01/14 01:49:38;;;;;;;41.53;23.17;;;2.90;99.90;;;;;;5008784;28;20658;-76
2022/01/14 01:52:07;;;;;;;38.03;23.27;;;3.00;99.90;;;;;;5023428;28;20226;-77
2022/01/14 01:54:34;;;;;;;36.43;22.63;;;3.20;99.90;;;;;;5024590;28;20220;-77
2022/01/14 01:57:02;;;;;;;45.57;24.93;;;3.20;99.90;;;;;;5011185;28;20204;-77
2022/01/14 01:59:30;;;;;;;44.13;24.90;;;3.10;99.90;;;;;;5011948;28;20196;-77
2022/01/14 02:01:59;;;;;;;42.63;25.60;;;3.30;99.90;;;;;;5024078;28;20200;-76
2022/01/14 02:04:29;;;;;;;39.83;24.50;;;3.30;99.90;;;;;;5011808;28;20228;-77
2022/01/14 02:06:57;;;;;;;36.37;22.83;;;3.20;99.90;;;;;;5009743;28;20207;-76
2022/01/14 02:09:25;;;;;;;42.37;24.53;;;3.30;99.90;;;;;;5011781;28;20202;-76
2022/01/14 02:11:53;;;;;;;41.10;24.17;;;3.40;99.90;;;;;;5023895;28;20231;-77
2022/01/14 02:14:52;;;;;;;45.90;26.07;;;3.40;99.90;;;;;;5011036;28;20217;-77
2022/01/14 02:17:33;;;;;;;41.30;24.27;;;3.20;99.90;;;;;;4999261;28;20209;-77
2022/01/14 02:22:52;;;;;;;46.80;26.67;;;3.40;99.90;;;;;;5004160;28;20191;-77
2022/01/14 02:25:28;;;;;;;41.87;25.63;;;3.40;99.90;;;;;;5000655;28;20228;-76
2022/01/14 02:27:57;;;;;;;49.53;27.00;;;3.40;99.90;;;;;;5012697;28;20633;-77
2022/01/14 02:30:25;;;;;;;45.97;27.20;;;3.40;99.90;;;;;;4999851;28;20215;-77
2022/01/14 02:33:06;;;;;;;48.87;27.50;;;3.40;99.90;;;;;;5003739;28;20586;-77
2022/01/14 02:35:35;;;;;;;50.30;27.07;;;3.40;99.90;;;;;;5003146;28;20714;-77
2022/01/14 02:38:03;;;;;;;42.03;25.20;;;3.40;99.90;;;;;;5010354;28;20198;-76
2022/01/14 02:40:34;;;;;;;44.63;26.93;;;3.30;99.90;;;;;;5008109;28;20205;-77
2022/01/14 02:43:02;;;;;;;44.60;25.70;;;3.30;99.90;;;;;;5026581;28;20199;-77
2022/01/14 02:45:32;;;;;;;47.50;27.03;;;3.50;99.90;;;;;;5025368;28;20219;-77
2022/01/14 02:48:01;;;;;;;48.13;27.90;;;3.30;99.90;;;;;;5004867;28;20203;-77
2022/01/14 02:50:41;;;;;;;43.83;25.70;;;3.30;99.90;;;;;;5003110;28;20206;-77
2022/01/14 02:53:26;;;;;;;46.07;27.17;;;3.50;99.90;;;;;;5027381;28;20219;-76
2022/01/14 02:55:55;;;;;;;46.00;27.57;;;3.40;99.90;;;;;;5005057;28;20211;-77
2022/01/14 02:58:24;;;;;;;47.00;26.13;;;3.40;99.90;;;;;;5002789;28;20211;-77
2022/01/14 03:00:53;;;;;;;45.53;27.70;;;3.40;99.90;;;;;;5008057;28;20207;-77
2022/01/14 03:03:24;;;;;;;44.80;27.17;;;3.10;99.90;;;;;;5004886;28;20190;-77
2022/01/14 03:06:17;;;;;;;49.37;28.03;;;3.00;99.90;;;;;;4997949;28;20191;-77
2022/01/14 03:08:44;;;;;;;43.73;27.27;;;2.80;99.90;;;;;;5006738;28;20199;-76
2022/01/14 03:11:15;;;;;;;48.13;28.47;;;2.90;99.90;;;;;;5011258;28;20206;-77
2022/01/14 03:13:43;;;;;;;47.13;27.27;;;3.10;99.90;;;;;;5004364;28;20230;-77
2022/01/14 03:16:10;;;;;;;45.67;26.40;;;3.10;99.90;;;;;;5002885;28;20210;-77
2022/01/14 03:18:43;;;;;;;44.73;26.67;;;3.10;99.90;;;;;;5020675;28;20562;-77
2022/01/14 03:21:26;;;;;;;42.43;26.43;;;3.00;99.90;;;;;;5024866;28;20191;-77
2022/01/14 03:24:03;;;;;;;46.17;26.67;;;3.10;99.90;;;;;;5008713;28;20208;-77
2022/01/14 03:26:30;;;;;;;43.93;27.00;;;2.90;99.90;;;;;;5017744;28;20207;-76
2022/01/14 03:28:58;;;;;;;45.27;26.33;;;3.00;99.90;;;;;;5010471;28;20692;-76
2022/01/14 03:31:25;;;;;;;42.10;24.07;;;2.90;99.90;;;;;;5004876;28;20185;-77
2022/01/14 03:33:52;;;;;;;41.67;24.17;;;3.00;99.90;;;;;;5014498;28;20235;-77
2022/01/14 03:36:21;;;;;;;42.27;24.83;;;3.20;99.90;;;;;;5010317;28;20207;-77
2022/01/14 03:38:48;;;;;;;40.77;24.40;;;3.20;99.90;;;;;;5007243;28;20208;-77
2022/01/14 03:45:07;;;;;;;41.57;24.03;;;3.20;99.90;;;;;;5012552;28;20230;-77
2022/01/14 03:47:34;;;;;;;39.33;23.20;;;3.20;99.90;;;;;;5020888;28;20202;-77
2022/01/14 03:50:02;;;;;;;40.37;22.77;;;3.20;99.90;;;;;;5009494;28;20216;-76
2022/01/14 03:52:31;;;;;;;39.70;22.53;;;2.90;99.90;;;;;;5012570;28;20207;-77
2022/01/14 03:54:58;;;;;;;40.73;22.27;;;2.90;99.90;;;;;;5007545;28;20215;-77
2022/01/14 03:57:26;;;;;;;36.23;22.70;;;3.10;99.90;;;;;;5008558;28;20228;-77
2022/01/14 03:59:53;;;;;;;39.67;22.00;;;3.10;99.90;;;;;;5004485;28;20196;-77
2022/01/14 04:02:20;;;;;;;36.57;22.23;;;2.90;99.90;;;;;;5017941;28;20575;-76
2022/01/14 04:04:48;;;;;;;37.43;21.40;;;3.00;99.90;;;;;;5003926;28;20248;-77
2022/01/14 04:07:15;;;;;;;39.80;22.60;;;2.90;99.90;;;;;;5012978;28;20703;-77
2022/01/14 04:09:44;;;;;;;40.03;22.50;;;2.80;99.90;;;;;;5006187;28;20199;-77
2022/01/14 04:12:17;;;;;;;43.17;22.23;;;3.00;99.90;;;;;;5008233;28;20196;-76
2022/01/14 04:17:30;;;;;;;38.10;22.13;;;2.80;99.90;;;;;;5013747;28;20234;-77
2022/01/14 04:19:57;;;;;;;38.23;22.53;;;2.80;99.90;;;;;;5008550;28;20207;-77
2022/01/14 04:22:24;;;;;;;43.13;22.63;;;2.70;99.90;;;;;;5023837;28;20208;-77
2022/01/14 04:24:53;;;;;;;41.83;23.63;;;2.90;99.90;;;;;;4996430;28;20231;-76
2022/01/14 04:27:20;;;;;;;41.30;23.00;;;3.00;99.90;;;;;;5014535;28;20192;-76
2022/01/14 04:29:48;;;;;;;38.53;22.67;;;3.00;99.90;;;;;;5021874;28;20200;-77
2022/01/14 04:32:15;;;;;;;42.17;22.73;;;2.90;99.90;;;;;;5013036;28;20195;-77
2022/01/14 04:34:42;;;;;;;37.47;22.67;;;2.90;99.90;;;;;;5027079;28;20232;-77
2022/01/14 04:37:10;;;;;;;84.23;25.30;;;2.80;99.90;;;;;;5008249;28;20219;-76
2022/01/14 04:39:37;;;;;;;42.20;22.23;;;2.60;99.90;;;;;;5020626;28;20214;-76
2022/01/14 04:42:06;;;;;;;94.83;28.43;;;2.50;99.90;;;;;;5026378;28;20213;-77
2022/01/14 04:44:34;;;;;;;74.53;24.63;;;2.20;99.90;;;;;;5011779;28;20688;-76
2022/01/14 04:47:14;;;;;;;82.50;29.23;;;2.00;99.90;;;;;;5010253;28;20204;-76
2022/01/14 04:50:04;;;;;;;68.10;26.03;;;2.00;99.90;;;;;;5009988;28;20187;-77
2022/01/14 04:52:31;;;;;;;85.77;29.03;;;1.90;99.90;;;;;;5008305;28;20176;-77
2022/01/14 04:54:59;;;;;;;92.70;29.97;;;2.00;99.90;;;;;;5024766;28;20216;-76
2022/01/14 04:57:27;;;;;;;89.20;30.90;;;1.70;99.90;;;;;;5006937;28;20188;-77
2022/01/14 04:59:55;;;;;;;70.50;27.17;;;1.80;99.90;;;;;;5014901;28;20191;-77
2022/01/14 05:02:22;;;;;;;55.20;27.33;;;1.80;99.90;;;;;;5020325;28;20200;-77
2022/01/14 05:04:50;;;;;;;71.23;28.70;;;1.80;99.90;;;;;;5008688;28;20207;-76
2022/01/14 05:07:24;;;;;;;66.83;31.50;;;2.00;99.90;;;;;;5017043;28;20193;-76
2022/01/14 05:10:06;;;;;;;60.33;29.60;;;2.00;99.90;;;;;;5025422;28;20680;-76
2022/01/14 05:12:37;;;;;;;56.60;27.50;;;1.80;99.90;;;;;;5025856;28;20211;-76
2022/01/14 05:15:05;;;;;;;56.17;29.00;;;1.70;99.90;;;;;;5012670;28;20227;-76
2022/01/14 05:17:32;;;;;;;66.30;28.93;;;1.90;99.90;;;;;;5006892;28;20187;-76
2022/01/14 05:20:32;;;;;;;58.27;26.60;;;1.70;99.90;;;;;;5014101;28;20214;-76
2022/01/14 05:23:00;;;;;;;56.00;26.23;;;1.70;99.90;;;;;;5027002;28;20196;-76
2022/01/14 05:25:27;;;;;;;53.83;26.93;;;1.60;99.90;;;;;;5009010;28;20219;-77
2022/01/14 05:27:56;;;;;;;53.87;25.90;;;1.70;99.90;;;;;;5027957;28;20200;-77
2022/01/14 05:30:23;;;;;;;49.67;25.87;;;1.90;99.90;;;;;;5004496;28;20192;-77
2022/01/14 05:32:53;;;;;;;48.83;25.00;;;2.10;99.90;;;;;;5022610;28;20202;-77
2022/01/14 05:35:30;;;;;;;47.33;24.77;;;2.20;99.90;;;;;;5012165;28;20220;-77
2022/01/14 05:37:58;;;;;;;49.97;25.53;;;2.40;99.90;;;;;;5026258;28;20202;-77
2022/01/14 05:40:27;;;;;;;55.47;26.30;;;2.40;99.90;;;;;;5004018;28;20212;-77
2022/01/14 05:42:56;;;;;;;48.10;27.07;;;2.30;99.90;;;;;;5014050;28;20192;-77
2022/01/14 05:45:24;;;;;;;46.93;25.97;;;2.50;99.90;;;;;;5009079;28;20231;-77
2022/01/14 05:47:51;;;;;;;53.40;26.47;;;2.50;99.90;;;;;;5012514;28;20214;-77
2022/01/14 05:50:21;;;;;;;46.57;25.20;;;2.40;99.90;;;;;;5020099;28;20200;-77
2022/01/14 05:52:50;;;;;;;64.53;27.20;;;2.60;99.90;;;;;;5008626;28;20199;-76
2022/01/14 05:55:20;;;;;;;54.50;29.10;;;2.10;99.90;;;;;;5023884;28;20588;-76
2022/01/14 05:57:48;;;;;;;55.30;27.43;;;2.10;99.90;;;;;;5012024;28;20203;-76
2022/01/14 06:00:19;;;;;;;53.33;27.07;;;2.10;99.90;;;;;;5011669;28;20712;-76
2022/01/14 06:02:47;;;;;;;55.47;27.37;;;2.00;99.90;;;;;;5014876;28;20196;-76
2022/01/14 06:05:57;;;;;;;55.63;28.53;;;2.20;99.90;;;;;;5010036;28;20220;-76
2022/01/14 06:08:24;;;;;;;54.53;28.03;;;2.00;99.90;;;;;;5018653;28;20191;-76
2022/01/14 06:10:56;;;;;;;66.23;32.23;;;2.00;99.90;;;;;;5023545;28;20203;-76
2022/01/14 06:13:24;;;;;;;58.37;29.97;;;2.10;99.90;;;;;;5005896;28;20192;-76
2022/01/14 06:15:54;;;;;;;68.53;32.57;;;2.30;99.90;;;;;;5021499;28;20205;-76
2022/01/14 06:18:22;;;;;;;58.87;30.90;;;2.30;99.90;;;;;;5016720;28;20192;-76
2022/01/14 06:20:49;;;;;;;60.10;32.47;;;2.30;99.90;;;;;;5005939;28;20545;-76
2022/01/14 06:23:16;;;;;;;55.37;29.33;;;2.30;99.90;;;;;;5028496;28;20207;-76
2022/01/14 06:25:44;;;;;;;70.90;33.13;;;2.20;99.90;;;;;;5008240;28;20215;-76
2022/01/14 06:28:11;;;;;;;60.13;31.70;;;2.20;99.90;;;;;;5023726;28;20200;-76
2022/01/14 06:30:39;;;;;;;60.70;30.03;;;2.30;99.90;;;;;;5008413;28;20192;-76
2022/01/14 06:33:08;;;;;;;52.00;29.60;;;2.30;99.90;;;;;;5011079;28;20218;-76
2022/01/14 06:35:36;;;;;;;54.83;29.33;;;2.10;99.90;;;;;;5004353;28;20230;-76
2022/01/14 06:38:04;;;;;;;58.57;29.93;;;2.00;99.90;;;;;;5010217;28;20211;-76
2022/01/14 06:40:34;;;;;;;73.87;33.50;;;1.90;99.90;;;;;;5002461;28;20207;-75
2022/01/14 06:43:02;;;;;;;55.20;28.97;;;1.80;99.90;;;;;;5011220;28;20200;-76
2022/01/14 06:45:30;;;;;;;84.10;33.83;;;1.80;99.90;;;;;;5021361;28;20315;-76
2022/01/14 06:48:00;;;;;;;60.53;31.87;;;1.80;99.90;;;;;;5001040;28;20197;-76
2022/01/14 06:50:29;;;;;;;65.00;33.27;;;1.80;99.90;;;;;;5017135;28;20223;-76
2022/01/14 06:52:56;;;;;;;65.73;30.87;;;1.90;99.90;;;;;;5023453;28;20585;-76
2022/01/14 06:55:23;;;;;;;61.87;28.37;;;2.00;99.90;;;;;;5024656;28;20225;-76
2022/01/14 06:57:54;;;;;;;42.77;20.93;;;2.00;99.90;;;;;;5010464;28;20204;-75
2022/01/14 07:00:34;;;;;;;61.57;30.90;;;3.00;99.90;;;;;;5000821;28;20199;-76
2022/01/14 07:03:01;;;;;;;61.97;28.63;;;2.50;99.90;;;;;;5009409;28;20207;-75
2022/01/14 07:05:31;;;;;;;62.47;28.70;;;2.90;99.90;;;;;;5009645;28;20216;-76
2022/01/14 07:07:58;;;;;;;98.50;32.63;;;2.50;99.90;;;;;;5007596;28;20196;-76
2022/01/14 07:10:25;;;;;;;83.13;32.47;;;2.10;99.90;;;;;;5005702;28;20213;-76
2022/01/14 07:12:53;;;;;;;87.17;30.93;;;1.90;99.90;;;;;;5015141;28;20200;-76
2022/01/14 07:15:40;;;;;;;60.93;28.63;;;2.10;99.90;;;;;;5014467;28;20220;-76
2022/01/14 07:18:09;;;;;;;66.57;29.60;;;2.20;99.90;;;;;;5010895;28;20187;-76
2022/01/14 07:20:38;;;;;;;60.30;29.73;;;2.20;99.90;;;;;;5009998;28;20204;-76
2022/01/14 07:23:05;;;;;;;74.63;30.70;;;2.20;99.90;;;;;;5011281;28;20179;-76
2022/01/14 07:25:33;;;;;;;62.13;29.23;;;2.10;99.90;;;;;;5006745;28;20215;-76
2022/01/14 07:28:22;;;;;;;72.23;30.60;;;2.10;99.90;;;;;;5008831;28;20539;-76
2022/01/14 07:30:49;;;;;;;75.80;30.67;;;2.00;99.90;;;;;;5006687;28;20207;-75
2022/01/14 07:33:17;;;;;;;96.37;31.87;;;2.10;99.90;;;;;;5009806;28;20206;-76
2022/01/14 07:39:34;;;;;;;80.33;32.63;;;2.00;99.90;;;;;;5019460;28;20193;-76
2022/01/14 07:42:01;;;;;;;75.07;33.03;;;2.20;99.90;;;;;;5015877;28;20207;-76
2022/01/14 07:44:30;;;;;;;66.43;32.77;;;2.30;99.90;;;;;;5009017;28;20211;-76
2022/01/14 07:46:57;;;;;;;73.67;30.83;;;2.30;99.90;;;;;;5029144;28;20769;-75
2022/01/14 07:49:25;;;;;;;70.77;31.97;;;2.30;99.90;;;;;;5024511;28;20207;-76
2022/01/14 07:51:52;;;;;;;56.73;30.27;;;2.30;99.90;;;;;;5030051;28;20207;-76
2022/01/14 07:55:03;;;;;;;69.50;31.97;;;2.60;99.90;;;;;;5016733;28;20227;-76
2022/01/14 07:57:32;;;;;;;76.93;31.30;;;2.60;99.90;;;;;;5004952;28;20197;-76
2022/01/14 08:00:00;;;;;;;60.87;30.27;;;2.60;99.90;;;;;;5015342;28;20191;-78
2022/01/14 08:02:27;;;;;;;56.30;26.43;;;2.60;99.90;;;;;;5016249;28;20203;-77
2022/01/14 08:04:55;;;;;;;61.90;28.80;;;2.50;99.90;;;;;;5008229;28;20228;-77
2022/01/14 08:07:24;;;;;;;48.70;27.30;;;2.60;99.90;;;;;;5017619;28;20717;-77
2022/01/14 08:09:51;;;;;;;61.77;28.13;;;2.60;99.90;;;;;;5017051;28;20199;-75
2022/01/14 08:12:18;;;;;;;49.70;26.30;;;2.60;99.90;;;;;;5018617;28;20586;-75
2022/01/14 08:14:47;;;;;;;52.80;28.37;;;2.70;99.90;;;;;;5018677;28;20220;-75
2022/01/14 08:17:18;;;;;;;58.27;27.57;;;2.80;99.90;;;;;;5033312;28;20679;-75
2022/01/14 08:19:45;;;;;;;70.30;29.33;;;2.50;99.90;;;;;;5034274;28;20206;-75
2022/01/14 08:22:12;;;;;;;54.60;27.63;;;2.50;99.90;;;;;;5034201;28;20704;-75
2022/01/14 08:24:40;;;;;;;53.40;28.80;;;2.70;99.90;;;;;;5033788;28;20216;-75
2022/01/14 08:27:07;;;;;;;56.83;28.77;;;2.70;99.90;;;;;;5018423;28;20195;-75
2022/01/14 08:29:34;;;;;;;72.90;31.50;;;2.80;99.90;;;;;;5017306;28;20213;-75
2022/01/14 08:32:04;;;;;;;63.73;31.13;;;2.80;99.90;;;;;;5017253;28;20203;-75
2022/01/14 08:34:31;;;;;;;72.53;32.40;;;2.80;99.90;;;;;;5017222;28;20550;-75
2022/01/14 08:36:58;;;;;;;63.87;31.23;;;2.60;99.90;;;;;;5017190;28;20218;-75
2022/01/14 08:39:26;;;;;;;66.67;33.27;;;2.80;99.90;;;;;;5017179;28;20207;-75
2022/01/14 08:41:55;;;;;;;63.37;31.73;;;2.80;99.90;;;;;;5018167;28;20207;-75
2022/01/14 08:44:22;;;;;;;99.70;33.53;;;2.80;99.90;;;;;;5033417;28;20227;-75
2022/01/14 08:47:09;;;;;;;70.97;33.20;;;2.50;99.90;;;;;;5030669;28;20200;-75
2022/01/14 08:49:37;;;;;;;69.03;31.87;;;2.50;99.90;;;;;;5002416;28;20195;-76
2022/01/14 08:52:05;;;;;;;88.47;36.67;;;2.60;99.90;;;;;;5013013;28;20206;-75
2022/01/14 08:54:32;;;;;;;75.50;34.43;;;2.70;99.90;;;;;;5013476;28;20228;-75
2022/01/14 08:57:02;;;;;;;67.10;34.43;;;2.70;99.90;;;;;;5028147;28;20203;-75
2022/01/14 08:59:43;;;;;;;66.67;31.97;;;2.80;99.90;;;;;;5014581;28;20196;-75
2022/01/14 09:02:12;;;;;;;80.97;36.50;;;2.80;99.90;;;;;;5011565;28;20540;-76
2022/01/14 09:04:39;;;;;;;74.03;32.60;;;2.70;99.90;;;;;;5013526;28;20215;-75
2022/01/14 09:07:07;;;;;;;74.93;33.30;;;2.70;99.90;;;;;;5013523;28;20200;-75
2022/01/14 09:09:43;;;;;;;68.00;33.80;;;2.70;99.90;;;;;;5013519;28;20210;-75
2022/01/14 09:12:22;;;;;;;74.27;34.03;;;2.70;99.90;;;;;;5013585;28;20214;-75
2022/01/14 09:14:50;;;;;;;67.87;31.67;;;2.80;99.90;;;;;;5014717;28;20215;-75
2022/01/14 09:17:25;;;;;;;74.10;35.03;;;2.90;99.90;;;;;;5011522;28;20210;-75
2022/01/14 09:20:05;;;;;;;130.20;35.63;;;2.80;99.90;;;;;;5008048;28;20211;-74
2022/01/14 09:22:35;;;;;;;84.50;34.93;;;2.60;99.90;;;;;;5020576;28;20207;-75
2022/01/14 09:25:22;;;;;;;95.97;35.27;;;2.60;99.90;;;;;;5011368;28;20231;-75
2022/01/14 09:28:18;;;;;;;93.07;32.83;;;2.70;99.90;;;;;;5006609;28;20653;-75
2022/01/14 09:30:45;;;;;;;71.40;32.70;;;2.70;99.90;;;;;;5023583;28;20199;-74
2022/01/14 09:33:17;;;;;;;90.63;35.70;;;2.80;99.90;;;;;;5028244;28;20236;-75
2022/01/14 09:35:55;;;;;;;73.53;35.50;;;2.80;99.90;;;;;;5010542;28;20326;-75
2022/01/14 09:38:23;;;;;;;103.37;36.13;;;3.00;99.90;;;;;;5011896;28;20193;-78
2022/01/14 09:40:52;;;;;;;89.20;34.33;;;2.80;99.90;;;;;;5025563;28;20203;-74
2022/01/14 09:47:46;;;;;;;112.73;34.97;;;2.70;99.90;;;;;;5013679;28;20186;-75
2022/01/14 09:50:15;;;;;;;80.23;33.77;;;2.70;99.90;;;;;;5007404;28;20203;-75
2022/01/14 09:52:45;;;;;;;97.00;35.70;;;2.70;99.90;;;;;;5031037;28;20217;-75
2022/01/14 09:55:12;;;;;;;84.00;34.73;;;2.80;99.90;;;;;;5027602;28;20226;-75
2022/01/14 09:57:42;;;;;;;72.77;33.07;;;2.90;99.90;;;;;;5012804;28;20211;-75
2022/01/14 10:00:10;;;;;;;83.37;36.70;;;2.80;99.90;;;;;;5003681;28;20200;-75
2022/01/14 10:02:40;;;;;;;74.00;33.97;;;2.90;99.90;;;;;;5017931;28;20201;-75
2022/01/14 10:05:30;;;;;;;80.90;34.80;;;3.00;99.90;;;;;;5011192;28;20226;-75
2022/01/14 10:08:50;;;;;;;74.50;34.60;;;3.10;99.90;;;;;;5004617;28;20206;-76
2022/01/14 10:11:25;;;;;;;74.50;32.73;;;3.20;99.90;;;;;;5002473;28;20211;-75
2022/01/14 10:13:52;;;;;;;69.77;32.93;;;3.00;99.90;;;;;;5001437;28;20214;-76
2022/01/14 10:16:24;;;;;;;64.97;30.77;;;3.00;99.90;;;;;;5010896;28;20210;-76
2022/01/14 10:18:52;;;;;;;62.40;30.70;;;3.20;99.90;;;;;;5008877;28;20179;-76
2022/01/14 10:21:19;;;;;;;78.57;32.20;;;3.10;99.90;;;;;;5010386;28;20250;-76
2022/01/14 10:23:54;;;;;;;74.63;30.77;;;3.00;99.90;;;;;;5010450;28;20239;-76
2022/01/14 10:26:21;;;;;;;68.27;30.23;;;3.00;99.90;;;;;;5010016;28;20204;-76
2022/01/14 10:29:00;;;;;;;75.57;32.33;;;3.00;99.90;;;;;;5006565;28;20211;-76
2022/01/14 10:31:33;;;;;;;61.97;30.37;;;3.00;99.90;;;;;;5009895;28;20336;-76
2022/01/14 10:34:09;;;;;;;62.47;29.63;;;2.90;99.90;;;;;;5010585;28;20211;-75
2022/01/14 10:36:37;;;;;;;62.97;29.07;;;3.00;99.90;;;;;;5010968;28;20207;-75
2022/01/14 10:39:22;;;;;;;62.97;29.87;;;3.10;99.90;;;;;;5009110;28;20211;-75
2022/01/14 10:41:50;;;;;;;82.67;30.77;;;3.10;99.90;;;;;;5006792;28;20189;-75
2022/01/14 10:44:27;;;;;;;79.87;31.13;;;3.10;99.90;;;;;;5007452;28;20231;-75
2022/01/14 10:47:27;;;;;;;71.90;31.63;;;3.10;99.90;;;;;;5007125;28;20184;-76
2022/01/14 10:49:58;;;;;;;74.30;32.07;;;3.10;99.90;;;;;;5026315;28;20193;-76
2022/01/14 10:52:31;;;;;;;64.43;28.93;;;3.10;99.90;;;;;;4999313;28;20209;-76
2022/01/14 10:55:00;;;;;;;60.90;29.73;;;3.20;99.90;;;;;;5005523;28;20216;-76
2022/01/14 10:57:35;;;;;;;74.87;31.60;;;3.20;99.90;;;;;;5021457;28;20210;-76
2022/01/14 11:00:18;;;;;;;73.13;32.00;;;3.30;99.90;;;;;;5007449;28;20205;-76
2022/01/14 11:02:48;;;;;;;61.73;29.67;;;3.30;99.90;;;;;;5001081;28;20555;-76
2022/01/14 11:05:22;;;;;;;70.63;31.60;;;3.30;99.90;;;;;;5006705;28;20262;-75
2022/01/14 11:07:51;;;;;;;65.10;29.70;;;3.20;99.90;;;;;;5008742;28;20206;-74
2022/01/14 11:10:22;;;;;;;64.47;30.93;;;3.40;99.90;;;;;;5009768;28;20566;-75
2022/01/14 11:12:55;;;;;;;66.93;29.70;;;5.00;99.90;;;;;;5008262;28;20205;-76
2022/01/14 11:15:26;;;;;;;60.07;29.03;;;4.60;99.90;;;;;;5009490;28;20220;-76
2022/01/14 11:17:56;;;;;;;64.37;30.43;;;4.10;99.90;;;;;;5008626;28;20200;-76
2022/01/14 11:20:29;;;;;;;64.57;28.37;;;3.70;99.90;;;;;;5010030;28;20203;-76
2022/01/14 11:23:14;;;;;;;64.23;30.47;;;3.70;99.90;;;;;;5009477;28;20187;-76
2022/01/14 11:25:49;;;;;;;58.43;28.23;;;3.50;99.90;;;;;;5010126;28;20203;-76
2022/01/14 11:28:20;;;;;;;56.97;27.67;;;3.50;99.90;;;;;;5006625;28;20205;-76
2022/01/14 11:30:49;;;;;;;56.60;28.90;;;3.70;99.90;;;;;;5006333;28;20211;-76
2022/01/14 11:33:19;;;;;;;62.30;29.10;;;3.60;99.90;;;;;;5008564;28;20200;-77
2022/01/14 11:35:56;;;;;;;59.97;27.20;;;3.60;99.90;;;;;;5020640;28;20532;-75
2022/01/14 11:38:50;;;;;;;62.53;29.23;;;3.80;99.90;;;;;;5012055;28;20195;-75
2022/01/14 11:41:20;;;;;;;55.10;28.87;;;3.70;99.90;;;;;;4967678;28;20205;-76
2022/01/14 11:43:51;;;;;;;65.90;31.50;;;3.90;99.90;;;;;;5009827;28;20584;-75
2022/01/14 11:47:00;;;;;;;60.70;30.17;;;3.90;99.90;;;;;;5009294;28;20194;-75
2022/01/14 11:49:38;;;;;;;68.03;31.33;;;3.80;99.90;;;;;;5002965;28;20208;-75
2022/01/14 11:52:08;;;;;;;60.70;30.00;;;3.70;99.90;;;;;;5010479;28;20199;-75
2022/01/14 11:54:40;;;;;;;64.50;30.73;;;3.80;99.90;;;;;;5009989;28;20687;-75
2022/01/14 11:57:08;;;;;;;61.03;30.67;;;3.80;99.90;;;;;;5008930;28;20219;-75
2022/01/14 11:59:47;;;;;;;59.03;28.07;;;3.80;99.90;;;;;;5008486;28;20216;-75
2022/01/14 12:02:42;;;;;;;60.33;28.53;;;3.80;99.90;;;;;;5003458;28;20202;-76
2022/01/14 12:05:14;;;;;;;57.17;29.07;;;3.80;99.90;;;;;;5010526;28;20218;-75
2022/01/14 12:08:21;;;;;;;69.83;30.53;;;4.00;99.90;;;;;;5024996;28;20193;-75
2022/01/14 12:11:00;;;;;;;56.67;28.37;;;3.90;99.90;;;;;;5000563;28;20199;-75
2022/01/14 12:13:54;;;;;;;63.40;29.37;;;3.80;99.90;;;;;;5007262;28;20209;-76
2022/01/14 12:19:24;;;;;;;56.53;29.97;;;4.10;99.90;;;;;;5026366;28;20196;-75
2022/01/14 12:22:00;;;;;;;67.47;29.50;;;3.90;99.90;;;;;;5026692;28;20206;-77
2022/01/14 12:24:54;;;;;;;58.40;31.03;;;4.00;99.90;;;;;;5009374;28;20211;-77
2022/01/14 12:27:55;;;;;;;58.73;28.43;;;4.10;99.90;;;;;;5014853;28;20194;-77
2022/01/14 12:31:09;;;;;;;49.40;26.97;;;4.10;99.90;;;;;;5002637;28;20210;-77
2022/01/14 12:34:26;;;;;;;56.67;29.83;;;3.90;99.90;;;;;;5012485;28;20199;-77
2022/01/14 12:36:55;;;;;;;54.23;28.27;;;4.00;99.90;;;;;;5011811;28;20276;-77
2022/01/14 12:39:23;;;;;;;60.63;28.47;;;4.10;99.90;;;;;;5016569;28;20207;-77
2022/01/14 12:41:59;;;;;;;57.43;30.07;;;4.10;99.90;;;;;;4961610;28;20231;-77
2022/01/14 12:44:29;;;;;;;58.53;30.90;;;4.20;99.90;;;;;;4986355;28;20207;-77
2022/01/14 12:47:06;;;;;;;57.87;30.23;;;4.30;99.90;;;;;;4981207;28;20681;-77
2022/01/14 12:53:22;;;;;;;56.77;31.13;;;4.20;99.90;;;;;;4997771;28;20175;-77
2022/01/14 12:55:49;;;;;;;62.47;36.00;;;4.20;99.90;;;;;;4976125;28;20231;-77
2022/01/14 12:58:17;;;;;;;66.93;36.53;;;4.10;99.90;;;;;;4976029;28;20208;-77
2022/01/14 13:00:44;;;;;;;68.03;36.43;;;4.20;99.90;;;;;;4993481;28;20804;-77
2022/01/14 13:03:13;;;;;;;72.50;38.87;;;4.20;99.90;;;;;;4976010;28;20677;-77
2022/01/14 13:05:40;;;;;;;79.77;42.53;;;4.20;99.90;;;;;;4974140;28;20685;-77
2022/01/14 13:08:08;;;;;;;73.73;42.50;;;4.40;99.90;;;;;;4974501;28;20621;-77
2022/01/14 13:10:37;;;;;;;72.83;35.93;;;4.20;99.90;;;;;;4984314;28;20199;-78
2022/01/14 13:13:05;;;;;;;70.83;37.23;;;4.20;99.90;;;;;;4993403;28;20211;-77
2022/01/14 13:15:35;;;;;;;67.70;35.17;;;4.20;99.90;;;;;;4973193;28;20223;-77
2022/01/14 13:18:30;;;;;;;69.40;37.10;;;4.10;99.90;;;;;;4982196;28;20211;-77
2022/01/14 13:20:58;;;;;;;71.87;34.97;;;4.10;99.90;;;;;;4984184;28;20218;-79
2022/01/14 13:23:26;;;;;;;70.70;35.33;;;4.10;99.90;;;;;;4974480;28;20553;-77
2022/01/14 13:25:55;;;;;;;69.63;36.00;;;4.10;99.90;;;;;;4992171;28;20193;-77
2022/01/14 13:28:26;;;;;;;65.13;34.93;;;4.10;99.90;;;;;;4974054;28;20218;-78
2022/01/14 13:30:53;;;;;;;75.90;37.37;;;4.20;99.90;;;;;;4984195;28;20212;-76